Date,TemperatureHighF,TemperatureAvgF,TemperatureLowF,DewpointHighF,DewpointAvgF,DewpointLowF,HumidityHigh,HumidityAvg,HumidityLow,PressureMaxIn,PressureMinIn,WindSpeedMaxMPH,WindSpeedAvgMPH,GustSpeedMaxMPH,PrecipitationSumIn
2013-1-15,23.2,21.3,18.8,14.7,14.0,12.8,77,73,69,30.29,30.23,7,2,10,0.00
2013-1-16,34.2,31.4,27.1,31.5,26.7,19.0,90,83,69,30.05,29.81,17,4,18,0.00
2013-1-17,28.3,20.3,13.4,22.6,10.8,5.5,86,67,48,30.42,30.09,6,2,13,0.00
2013-1-18,40.6,28.8,12.8,32.8,23.6,9.5,88,81,71,30.44,29.85,10,5,22,0.00
2013-1-19,44.6,35.1,13.7,35.4,28.0,3.1,89,76,44,29.99,29.67,16,5,32,0.00
2013-1-20,14.8,10.2,6.1,3.2,0.5,-1.4,72,65,52,30.34,29.99,22,3,23,0.00
2013-1-21,9.2,2.6,-2.2,1.8,-5.9,-9.3,78,67,55,30.34,30.19,18,4,18,0.00
2013-1-22,7.4,1.1,-6.4,-1.4,-6.2,-11.0,81,71,59,30.44,30.33,14,3,17,0.00
2013-1-23,17.4,12.2,6.5,13.6,6.0,-2.5,86,76,64,30.37,30.14,19,4,21,0.00
2013-1-24,16.9,6.7,-0.3,10.3,-0.7,-6.4,78,71,62,30.70,30.38,7,2,14,0.00
2013-1-25,25.5,19.0,13.2,18.1,12.5,6.2,89,76,60,30.38,29.98,11,4,21,0.00
2013-1-26,23.9,16.0,3.4,14.2,7.7,0.3,89,70,52,30.44,30.24,5,1,10,0.00
2013-1-27,33.3,27.6,21.1,32.5,22.9,13.4,97,83,68,30.36,29.85,9,4,20,0.04
2013-1-28,40.9,36.2,33.3,36.4,34.5,32.5,98,94,81,29.94,29.75,9,2,14,0.21
2013-1-29,53.6,42.3,33.7,53.6,42.0,33.2,100,99,97,29.77,29.46,9,2,18,0.99
2013-1-30,33.8,26.3,14.5,33.3,25.1,11.1,98,95,86,29.65,29.31,16,4,17,0.09
2013-1-31,14.5,7.1,-2.1,10.9,2.8,-6.0,89,82,74,30.22,29.65,14,4,15,0.00
2013-2-1,5.5,-1.5,-9.1,3.0,-6.2,-12.8,89,80,70,30.40,30.18,10,3,13,0.00
2013-2-2,10.8,7.2,2.8,6.4,3.4,-0.7,91,84,73,30.18,30.06,6,1,8,0.00
2013-2-3,17.9,12.5,4.7,13.2,8.4,1.9,92,84,72,30.08,29.99,14,2,16,0.00
2013-2-4,17.5,12.7,3.7,13.6,9.2,0.7,92,86,71,30.03,29.95,9,1,13,0.00
2013-2-5,28.3,18.7,2.7,24.7,15.3,-0.3,93,87,78,30.13,29.83,11,2,12,0.00
2013-2-6,34.4,22.0,6.4,31.5,18.4,4.3,95,86,74,30.25,30.07,10,2,14,0.06
2013-2-7,34.4,30.8,21.3,32.8,29.6,20.0,98,95,89,30.09,29.91,8,2,11,0.12
2013-2-8,24.4,19.8,11.5,19.7,16.8,9.4,94,88,79,30.41,30.09,9,1,12,0.09
2013-2-9,28.3,22.4,12.8,25.7,20.4,11.3,96,92,87,30.42,30.12,13,4,16,0.00
2013-2-10,41.8,34.2,24.0,41.5,33.3,22.5,99,96,90,30.08,29.39,11,6,25,0.47
2013-2-11,36.1,28.9,22.9,33.5,24.8,18.6,91,85,78,30.02,29.41,19,9,35,0.01
2013-2-12,29.7,23.3,20.1,22.9,18.4,15.8,90,82,75,30.11,29.94,18,4,18,0.00
2013-2-13,36.8,28.1,17.5,31.3,24.8,15.9,96,88,72,29.89,29.68,7,1,13,0.00
2013-2-14,35.7,32.6,26.3,32.5,27.4,21.8,94,81,63,30.00,29.58,17,3,19,0.01
2013-2-15,27.4,19.2,10.9,22.1,9.8,3.0,84,67,54,30.24,30.00,10,3,15,0.00
2013-2-16,16.2,9.3,3.1,6.3,2.2,-0.9,86,73,54,30.24,30.18,10,1,11,0.00
2013-2-17,27.2,15.5,0.7,21.3,8.4,-3.0,87,74,59,30.25,29.94,12,3,19,0.00
2013-2-18,45.9,34.6,27.1,39.6,29.4,21.0,96,81,71,29.94,29.48,14,5,20,0.14
2013-2-20,21.4,11.8,3.5,11.8,5.1,-2.3,87,74,63,30.44,30.25,6,2,12,0.00
2013-2-21,25.0,17.5,9.9,22.6,14.0,6.0,95,86,77,30.47,30.03,13,3,25,0.00
2013-2-22,29.6,25.7,23.2,27.0,23.9,21.9,95,93,90,30.02,29.80,8,4,21,0.06
2013-2-23,27.8,23.7,21.1,22.7,19.5,16.7,91,84,73,29.97,29.87,9,4,15,0.00
2013-2-24,35.6,23.3,9.6,24.1,17.3,7.6,94,79,59,30.16,29.97,4,1,8,0.03
2013-2-25,38.1,27.9,16.4,28.6,22.5,14.5,94,81,65,30.19,30.03,5,1,10,0.00
2013-2-26,32.4,30.3,28.0,28.6,26.7,24.7,97,87,77,30.03,29.64,13,5,25,0.00
2013-2-27,32.4,29.7,27.2,30.9,28.6,26.2,97,96,93,29.80,29.63,10,2,13,0.14
2013-2-28,34.0,29.5,23.2,29.8,26.1,18.8,96,87,79,30.14,29.80,11,3,16,0.13
2013-3-1,25.6,21.0,12.4,19.8,16.9,9.9,92,84,71,30.27,30.14,7,1,13,0.01
2013-3-2,24.5,14.7,8.1,14.8,9.4,4.5,90,80,65,30.29,30.25,8,1,10,0.00
2013-3-3,28.1,17.0,5.4,13.5,8.6,2.6,90,71,48,30.21,30.12,4,1,7,0.02
2013-3-4,30.9,22.9,14.0,23.2,16.8,6.9,84,77,68,30.16,30.03,10,5,21,0.01
2013-3-5,28.9,27.1,23.7,27.6,25.0,21.8,95,91,83,30.11,29.88,6,2,16,0.12
2013-3-6,31.4,27.2,23.8,25.5,23.2,21.3,92,85,78,30.34,30.12,6,3,13,0.15
2013-3-7,34.2,24.0,12.4,23.4,18.6,10.5,95,81,63,30.44,30.33,4,1,8,0.08
2013-3-8,36.8,27.6,18.5,27.6,23.0,15.3,95,83,68,30.48,30.28,12,3,15,0.00
2013-3-9,38.5,34.4,28.2,36.1,30.9,23.8,95,87,77,30.28,29.84,13,4,17,0.35
2013-3-10,40.4,37.5,33.9,40.1,36.9,33.4,99,98,95,29.80,29.61,8,2,18,0.83
2013-3-11,33.8,31.6,29.7,33.5,30.8,26.3,99,97,87,29.78,29.57,6,2,15,0.02
2013-3-12,33.2,26.9,22.5,28.4,23.4,18.9,95,87,76,30.04,29.78,14,5,22,0.05
2013-3-13,32.4,23.4,17.5,20.3,12.6,4.5,89,66,32,30.34,30.04,15,3,15,0.01
2013-3-14,35.2,24.3,12.3,28.7,20.2,9.8,94,84,72,30.34,30.09,10,2,12,0.01
2013-3-15,34.2,29.9,24.0,32.3,28.7,22.5,97,95,88,30.08,29.80,12,2,18,0.21
2013-3-16,29.6,26.1,20.9,26.5,21.7,18.8,94,84,73,30.17,29.80,12,2,14,0.00
2013-3-17,30.5,23.7,16.6,21.2,16.4,8.9,84,73,67,30.28,30.01,15,4,17,0.00
2013-3-18,32.0,26.4,18.2,30.5,23.8,11.6,95,90,75,30.01,29.61,23,5,23,0.17
2013-3-19,26.9,18.1,9.9,14.1,9.7,5.6,84,70,55,30.10,29.77,13,8,26,0.00
2013-3-20,20.7,14.0,7.2,9.9,4.6,-0.7,78,66,55,30.14,30.06,11,4,19,0.00
2013-3-21,28.8,16.6,4.5,13.6,7.5,-0.2,84,68,49,30.12,30.04,8,1,12,0.00
2013-3-22,33.5,21.5,7.7,18.6,12.6,4.9,90,70,50,30.10,30.05,5,1,8,0.00
2013-4-1,35.3,29.8,24.7,19.7,15.1,11.5,68,54,39,30.22,29.92,8,4,18,0.00
2013-4-2,39.1,30.0,22.7,18.8,15.7,10.6,76,57,32,30.34,30.21,8,2,19,0.00
2013-4-3,44.1,32.3,18.6,22.1,17.0,12.1,86,56,33,30.47,30.29,7,1,15,0.00
2013-4-4,57.2,42.3,28.2,38.0,28.2,19.8,77,58,40,30.29,29.96,10,4,22,0.00
2013-4-5,47.2,38.9,27.8,30.1,25.7,22.5,83,60,39,30.24,30.05,11,3,18,0.00
2013-4-6,62.9,46.4,33.0,48.9,35.1,21.5,90,66,45,30.11,29.54,11,6,25,0.03
2013-4-7,57.3,45.4,36.7,46.3,36.9,32.7,89,73,49,29.93,29.58,14,4,20,0.02
2013-4-8,61.8,46.2,36.6,52.2,42.0,32.5,98,86,66,29.86,29.59,17,4,17,0.53
2013-4-9,43.3,38.8,36.1,42.1,38.2,35.1,98,98,95,29.99,29.83,10,4,23,1.34
2013-4-10,36.6,34.6,31.4,35.6,33.7,30.4,97,96,95,30.06,29.88,13,4,19,1.23
2013-4-11,38.3,36.3,34.6,37.5,35.5,33.6,98,97,95,29.90,29.57,22,7,31,0.30
2013-4-12,40.3,36.0,33.2,37.3,33.4,28.5,99,91,78,29.81,29.53,11,4,18,0.05
2013-4-13,38.3,34.3,30.6,29.4,27.8,25.4,88,77,66,29.97,29.81,17,5,21,0.00
2013-4-14,53.8,39.5,30.5,47.6,35.1,26.5,96,85,70,30.01,29.54,18,8,30,0.17
2013-4-15,58.6,47.6,39.3,51.7,42.7,36.7,99,85,49,29.97,29.57,11,4,24,0.54
2013-4-16,52.5,42.6,32.4,36.4,33.2,28.4,91,71,49,30.28,29.96,10,2,12,0.00
2013-4-17,42.8,39.9,37.7,41.0,36.8,32.4,97,89,75,30.30,29.83,21,5,31,1.03
2013-4-18,59.0,46.1,35.5,58.7,45.2,32.3,100,97,86,29.87,29.33,23,6,35,0.61
2013-4-19,38.1,34.9,31.4,32.3,28.5,23.6,90,78,61,29.83,29.38,25,9,27,0.01
2013-4-20,44.9,34.6,25.0,23.0,19.9,15.6,82,57,33,30.39,29.93,8,2,14,0.00
2013-4-21,51.9,41.6,31.9,37.3,30.0,21.5,79,64,46,30.49,30.25,14,6,20,0.00
2013-4-22,65.7,53.6,42.0,44.0,38.8,34.1,75,58,41,30.27,29.97,16,5,17,0.00
2013-4-23,56.2,42.7,37.0,47.0,37.2,29.5,93,81,59,29.99,29.86,13,3,15,0.08
2013-4-24,52.2,41.9,32.2,31.6,26.9,22.0,78,57,33,30.05,29.97,17,3,17,0.00
2013-4-25,50.5,42.0,35.5,35.6,31.8,26.5,89,69,43,30.28,29.99,14,4,22,0.00
2013-4-26,68.3,53.5,36.6,48.2,37.2,25.5,68,54,44,30.27,30.13,22,6,22,0.00
2013-4-29,69.9,60.3,48.9,58.0,52.9,46.3,94,77,60,29.83,29.67,10,4,21,0.04
2013-4-30,85.5,72.2,59.2,62.1,55.5,48.2,91,60,30,29.83,29.63,12,6,27,0.00
2013-5-1,81.4,67.4,50.9,58.9,52.7,42.9,79,60,39,30.14,29.83,6,2,17,0.00
2013-5-2,54.4,46.0,37.1,44.7,38.8,34.6,91,77,64,30.25,30.14,7,3,19,0.05
2013-5-3,46.9,40.3,34.8,46.4,39.2,33.5,98,96,91,30.20,29.99,6,3,14,0.62
2013-5-4,69.5,55.8,46.2,58.2,49.9,45.1,98,82,51,30.04,29.96,10,2,17,0.16
2013-5-5,71.9,59.5,48.3,52.1,47.4,44.0,93,67,39,30.03,29.96,13,2,15,0.00
2013-5-6,72.9,60.6,42.6,49.6,45.0,39.9,93,59,34,30.05,29.96,10,1,13,0.00
2013-5-7,77.8,66.0,53.3,48.7,42.6,37.0,69,45,25,30.03,29.94,10,1,10,0.00
2013-5-8,79.3,66.3,51.1,53.4,47.6,42.8,80,54,29,30.00,29.91,7,1,8,0.00
2013-5-9,64.7,57.8,47.5,58.8,54.0,46.7,97,87,59,29.92,29.80,13,2,21,1.10
2013-5-10,51.5,45.3,41.5,47.5,43.3,40.2,97,93,86,29.98,29.83,11,2,14,0.28
2013-5-11,52.5,46.3,39.2,49.2,36.3,25.3,98,71,43,30.05,29.81,17,4,24,0.03
2013-5-12,54.2,44.0,35.1,30.6,26.8,23.2,71,52,31,30.13,30.05,14,3,17,0.00
2013-5-13,64.5,50.5,30.3,39.0,32.2,26.1,94,54,25,30.17,29.89,11,2,12,0.00
2013-5-14,89.2,71.8,52.5,61.5,50.5,37.8,71,49,26,29.89,29.53,14,4,17,0.00
2013-5-15,77.5,70.2,58.6,60.6,48.9,41.3,65,48,29,29.81,29.53,10,2,14,0.00
2013-5-16,84.2,68.7,52.8,56.1,47.0,40.6,76,48,27,29.91,29.80,12,2,19,0.00
2013-5-17,64.9,58.0,49.3,56.1,48.1,37.1,94,71,47,30.02,29.91,15,4,18,0.32
2013-5-18,79.9,66.7,51.9,64.8,57.5,46.6,86,73,55,30.02,29.87,12,2,13,0.00
2013-5-19,85.0,71.9,62.3,66.7,62.3,56.7,90,73,51,29.89,29.59,20,4,32,0.13
2013-5-20,81.2,71.5,61.3,64.9,61.6,58.6,96,72,52,29.74,29.54,18,4,20,0.44
2013-5-21,76.0,68.1,59.8,63.5,59.7,56.7,92,76,57,29.64,29.56,15,3,20,0.00
2013-5-22,69.7,63.2,56.2,62.1,58.2,54.9,96,84,64,29.72,29.57,9,1,12,0.43
2013-5-23,61.0,52.9,45.4,54.9,46.4,38.4,97,80,51,30.28,29.72,11,2,13,0.16
2013-5-24,62.6,50.1,34.5,44.5,38.5,32.7,96,67,37,30.44,30.28,10,2,11,0.00
2013-5-25,56.7,50.6,43.3,43.7,40.1,36.2,84,68,51,30.38,30.27,15,2,15,0.04
2013-5-26,64.8,53.8,45.1,52.0,44.1,35.9,86,71,46,30.29,30.12,13,3,15,0.02
2013-5-27,54.5,52.5,49.9,53.4,50.3,43.5,98,92,71,30.13,29.84,15,4,17,0.06
2013-5-28,71.5,61.1,50.8,68.2,60.0,50.3,100,96,85,29.85,29.66,9,1,11,1.05
2013-5-29,81.0,70.6,63.3,69.8,65.3,61.9,100,84,68,29.87,29.72,14,2,17,0.07
2013-5-30,82.3,74.4,63.0,70.1,67.0,61.8,99,79,63,29.82,29.63,19,5,24,0.06
2013-5-31,74.6,67.3,62.2,67.2,63.4,60.5,95,88,68,29.73,29.61,10,4,22,0.02
2013-6-1,76.8,68.5,60.8,66.1,62.5,56.3,99,82,57,29.67,29.57,16,4,21,0.00
2013-6-2,60.8,53.8,44.9,57.3,46.5,41.9,93,77,57,30.00,29.66,13,3,18,0.00
2013-6-3,69.5,56.3,40.4,51.3,44.7,39.3,99,69,37,30.10,29.99,11,1,14,0.00
2013-6-4,67.9,60.7,53.0,53.0,47.9,44.1,87,64,45,30.14,30.03,15,2,16,0.01
2013-6-5,66.6,56.8,49.6,58.2,52.6,46.0,94,86,70,30.09,29.91,14,3,16,0.13
2013-6-6,56.6,54.5,51.8,55.1,52.8,49.9,97,94,84,29.94,29.88,8,1,9,0.08
2013-6-7,69.3,58.2,52.7,56.1,51.6,46.7,93,80,51,29.98,29.88,10,1,10,0.04
2013-6-8,71.2,62.1,50.0,52.7,48.7,43.8,87,63,43,29.97,29.90,11,2,11,0.00
2013-6-9,77.9,66.4,56.7,63.2,56.5,46.8,97,72,51,29.96,29.74,16,4,20,0.33
2013-6-10,79.5,69.0,59.1,66.3,62.7,58.5,99,82,60,29.82,29.72,9,1,10,0.01
2013-6-11,83.7,70.7,56.3,67.9,63.1,55.5,99,79,53,29.88,29.74,10,1,12,0.00
2013-6-12,80.2,71.4,62.9,71.6,66.6,62.0,97,85,72,29.86,29.57,15,3,17,0.76
2013-6-13,76.9,67.3,55.5,61.4,57.9,54.1,97,74,50,30.01,29.68,10,2,12,0.00
2013-6-14,76.7,65.9,52.4,60.1,56.1,50.0,94,72,50,30.11,29.95,9,2,11,0.00
2013-6-15,82.0,69.5,57.9,70.0,62.9,52.7,93,80,63,30.02,29.76,13,3,17,0.04
2013-6-16,83.5,73.7,59.9,69.4,59.7,51.1,95,65,35,29.86,29.80,15,2,21,0.00
2013-6-17,85.5,71.7,57.1,63.6,58.0,53.6,88,65,38,29.91,29.81,11,2,13,0.00
2013-6-18,70.6,62.2,54.5,59.3,53.8,48.4,89,75,56,30.06,29.90,11,3,15,0.00
2013-6-19,79.4,66.1,50.3,59.2,51.2,44.4,87,61,40,30.12,30.01,7,2,11,0.00
2013-6-20,86.3,73.3,56.5,64.4,56.7,46.7,73,57,38,30.09,29.98,11,2,14,0.00
2013-6-21,78.6,70.7,65.4,68.7,64.7,61.5,96,82,69,30.05,29.76,17,3,33,1.58
2013-6-22,81.7,71.1,65.2,74.5,67.5,64.1,98,89,72,30.08,29.86,20,3,27,2.80
2013-6-23,84.3,72.3,62.4,75.0,67.7,61.7,98,86,69,30.01,29.80,16,3,19,0.39
2013-6-24,80.9,71.3,67.2,71.1,67.3,65.0,96,88,70,29.97,29.78,12,3,19,0.00
2013-6-25,80.4,70.9,63.9,74.2,68.7,63.3,99,93,77,29.92,29.74,11,2,26,2.48
2013-6-26,82.2,73.6,65.4,72.9,69.5,64.2,99,88,68,29.76,29.65,14,2,17,1.62
2013-6-27,86.3,76.9,67.4,73.2,67.9,61.1,99,76,50,29.75,29.64,16,3,20,0.00
2013-6-28,75.5,68.1,62.0,66.7,62.0,58.4,96,82,61,29.69,29.58,19,2,19,0.44
2013-6-29,70.6,65.2,62.9,65.7,62.3,59.0,98,91,71,29.80,29.58,13,2,16,0.40
2013-6-30,75.7,67.5,57.3,62.1,55.7,49.1,87,67,47,30.01,29.79,13,2,17,0.00
2013-7-1,76.9,66.5,55.3,58.8,54.0,50.9,91,66,42,30.08,30.01,16,2,17,0.00
2013-7-2,72.6,64.2,53.8,57.7,53.3,44.8,91,70,38,30.09,30.03,14,2,15,0.00
2013-7-3,70.2,61.7,51.6,62.7,57.4,50.3,97,86,73,30.06,29.99,5,0,8,0.00
2013-7-4,82.7,70.4,56.7,64.6,60.6,55.9,99,74,46,30.05,29.96,10,2,12,0.00
2013-7-5,83.5,74.4,63.1,67.7,63.9,59.5,88,71,53,30.02,29.94,13,3,15,0.00
2013-7-6,84.1,74.2,63.7,68.9,64.8,60.0,89,73,56,29.99,29.89,9,2,15,0.00
2013-7-7,88.2,77.8,67.0,73.8,69.6,65.1,95,77,56,29.93,29.85,9,2,14,0.00
2013-7-8,88.1,77.5,69.9,77.2,72.2,68.8,97,84,66,29.91,29.84,13,3,17,0.40
2013-7-9,84.1,76.6,71.0,77.1,73.2,69.8,99,90,73,29.92,29.77,15,3,20,0.04
2013-7-10,77.1,72.7,60.1,74.4,64.4,57.7,98,77,52,29.97,29.79,12,2,13,0.01
2013-7-11,78.7,67.9,55.9,62.7,57.9,53.2,98,73,45,30.09,29.97,9,1,13,0.00
2013-7-12,82.1,70.8,57.1,62.3,56.4,52.0,89,62,39,30.13,30.03,10,1,13,0.00
2013-7-13,81.5,71.9,59.7,65.5,60.4,55.1,86,68,49,30.11,30.03,9,2,10,0.00
2013-7-14,85.8,75.9,65.2,70.3,66.2,59.7,86,73,57,30.16,30.09,8,2,11,0.00
2013-7-15,89.2,79.7,67.4,75.3,71.2,65.4,94,76,59,30.22,30.13,6,1,9,0.00
2013-7-16,91.4,81.7,72.2,77.6,74.7,71.0,97,80,60,30.22,30.16,10,2,11,0.00
2013-7-17,92.2,82.2,72.1,78.2,74.6,71.2,98,80,56,30.24,30.09,10,2,12,0.00
2013-7-18,91.8,82.0,71.2,76.9,73.5,70.5,98,77,56,30.11,29.84,16,4,17,0.00
2013-7-19,88.8,80.5,70.9,75.5,71.4,64.4,91,75,62,29.84,29.67,17,5,21,0.00
2013-7-20,84.3,73.4,59.7,68.0,63.7,57.7,96,73,50,29.90,29.77,10,2,11,0.00
2013-7-21,80.9,66.7,60.6,70.4,62.2,57.5,96,86,66,29.92,29.82,17,3,21,1.03
2013-7-22,85.3,71.7,61.1,72.6,66.3,60.2,99,84,62,29.85,29.66,17,3,22,0.60
2013-7-23,73.4,66.4,55.5,64.3,58.4,53.8,96,77,55,29.95,29.68,10,2,12,0.00
2013-7-24,74.3,62.5,52.0,58.8,53.7,50.9,98,75,49,30.05,29.95,8,1,11,0.00
2013-7-25,79.2,68.0,54.0,65.6,60.2,52.3,95,77,59,30.05,29.93,16,2,16,0.09
2013-7-26,74.4,66.0,59.9,69.9,62.3,55.5,98,89,59,29.93,29.80,11,2,20,0.74
2013-7-27,62.2,55.3,50.7,56.7,49.1,44.9,92,80,62,29.92,29.85,17,3,18,0.01
2013-7-28,65.5,57.4,51.1,54.9,51.4,48.5,95,81,64,30.00,29.83,12,3,14,0.00
2013-7-29,73.0,62.7,50.6,61.5,56.1,49.0,96,80,64,30.13,30.00,7,1,8,0.00
2013-7-30,69.9,63.4,56.0,63.9,60.1,54.9,98,89,76,30.14,30.04,7,1,9,0.06
2013-7-31,78.2,68.7,59.9,68.6,64.0,58.7,99,86,68,30.05,29.92,13,1,13,0.01
2013-8-1,77.1,66.7,55.8,62.5,58.3,55.2,99,77,49,29.98,29.87,13,2,15,0.03
2013-8-2,79.1,68.7,60.9,69.0,61.5,57.2,98,80,52,29.92,29.80,8,1,16,0.50
2013-8-3,75.3,65.4,54.3,60.8,55.4,52.1,95,73,46,30.11,29.92,9,1,15,0.00
2013-8-4,74.2,63.9,53.3,61.4,56.2,51.3,94,78,47,30.19,30.07,8,1,9,0.00
2013-8-5,71.0,63.5,57.1,64.8,60.1,55.1,97,89,75,30.07,29.82,14,2,16,0.04
2013-8-9,77.8,71.7,59.1,66.9,62.0,56.2,90,72,59,30.03,29.94,9,2,13,0.01
2013-8-10,75.7,64.6,53.9,60.0,56.5,52.5,97,77,52,30.12,30.03,7,1,10,0.00
2013-8-11,75.5,64.3,53.9,67.2,61.0,52.8,98,90,72,30.11,29.99,11,1,11,0.07
2013-8-12,78.5,69.4,59.8,69.2,64.4,57.5,99,85,61,30.00,29.86,8,1,9,0.04
2013-8-13,70.1,61.6,53.0,58.0,52.2,48.6,92,73,51,30.13,29.93,10,2,14,0.00
2013-8-14,72.8,59.6,48.1,58.2,51.9,47.0,98,78,48,30.20,30.09,9,1,11,0.00
2013-8-15,76.5,63.1,55.9,59.1,55.0,52.5,91,77,46,30.13,30.06,7,1,10,0.00
2013-8-24,82.0,71.7,59.1,69.4,63.1,53.7,87,75,62,30.21,30.10,6,2,15,0.00
2013-8-25,87.6,77.3,68.0,73.3,67.7,63.0,88,73,55,30.15,30.03,10,5,20,0.00
2013-8-26,89.7,78.0,68.1,77.1,71.0,64.8,90,80,64,30.07,29.90,9,4,18,0.00
2013-8-27,91.8,81.5,71.2,77.1,73.4,69.1,93,78,60,29.91,29.74,11,4,22,0.00
2013-8-28,80.7,75.1,70.4,73.8,71.5,68.0,98,89,74,29.99,29.77,5,1,11,0.00
2013-8-29,85.4,74.8,63.3,72.6,68.1,62.4,99,81,58,30.04,29.91,6,1,11,0.00
2013-8-30,92.9,78.5,69.3,78.9,72.7,67.2,96,83,60,29.91,29.70,13,3,15,0.00
2013-8-31,76.7,69.4,63.9,69.3,65.4,61.6,97,87,75,29.82,29.74,11,2,14,0.00
2013-9-1,83.9,69.9,60.5,73.3,65.3,57.9,99,87,55,29.80,29.68,11,1,13,0.00
2013-9-2,69.1,62.4,53.1,60.0,56.8,50.8,97,83,63,29.98,29.79,8,1,11,0.00
2013-9-3,74.8,60.0,45.9,61.2,53.3,45.1,99,81,53,30.08,29.98,8,1,12,0.01
2013-9-4,83.6,66.6,51.3,67.8,59.4,50.5,98,80,48,30.09,30.01,8,1,12,0.01
2013-9-5,72.7,65.8,57.2,64.1,59.2,49.0,97,80,67,30.22,30.07,13,4,16,0.00
2013-9-6,85.2,70.1,55.1,68.0,59.8,48.3,83,71,55,30.18,29.93,12,2,16,0.00
2013-9-7,90.1,76.1,65.5,73.7,67.5,61.7,92,76,54,29.94,29.82,13,2,18,0.00
2013-9-8,72.8,67.4,62.7,70.2,64.1,59.8,94,89,83,30.00,29.90,17,4,17,0.00
2013-9-9,92.4,76.9,65.3,78.4,70.3,63.1,97,82,59,29.92,29.72,11,3,16,0.00
2013-9-10,93.5,81.8,72.2,70.4,65.1,62.4,81,59,36,29.89,29.77,19,4,26,0.00
2013-9-11,83.2,72.2,65.3,69.1,65.8,63.0,95,81,55,30.02,29.88,11,2,13,0.03
2013-9-12,72.9,64.0,54.5,64.7,55.3,49.3,98,75,47,30.10,29.94,14,2,16,0.01
2013-9-13,63.8,54.8,46.0,49.0,42.8,38.3,83,66,40,30.20,30.10,11,2,14,0.00
2013-9-14,70.5,56.8,39.5,50.8,45.3,38.2,98,68,42,30.16,29.96,13,2,15,0.00
2013-9-15,59.8,55.1,52.2,56.3,52.3,45.8,98,91,60,30.20,29.94,9,1,12,0.92
2013-9-16,62.7,52.7,42.4,53.0,46.2,39.3,93,79,56,30.39,30.20,11,3,14,0.00
2013-9-17,68.1,55.9,43.2,56.3,50.5,42.1,97,83,61,30.33,30.06,6,2,19,0.04
2013-9-18,73.3,66.3,58.8,68.0,61.6,54.7,94,85,75,30.06,29.84,10,4,21,0.00
2013-9-19,87.7,72.0,65.3,74.2,68.1,63.0,98,89,58,29.86,29.66,25,3,33,1.84
2013-9-20,68.3,63.5,54.4,65.5,59.6,52.4,99,88,67,29.81,29.68,14,4,19,0.00
2013-9-21,60.4,53.4,45.0,52.7,48.2,43.6,96,83,62,29.94,29.80,13,2,16,0.00
2013-9-22,63.2,51.8,42.0,49.6,45.9,41.2,98,82,54,30.07,29.94,10,1,10,0.01
2013-9-23,67.0,55.1,44.3,53.3,48.4,43.0,96,80,58,30.10,30.00,11,3,15,0.00
2013-9-24,70.4,58.2,48.5,54.4,50.5,46.0,94,77,50,30.02,29.91,11,3,14,0.00
2013-9-25,69.9,57.3,46.7,56.8,51.0,45.7,98,81,55,29.97,29.91,11,2,13,0.01
2013-9-26,75.7,59.9,45.6,59.6,51.6,44.5,99,77,44,30.05,29.96,11,2,13,0.00
2013-9-27,79.6,65.6,52.3,58.0,53.1,50.0,93,67,38,30.10,29.99,13,3,16,0.00
2013-9-28,79.1,64.4,53.5,65.6,56.3,49.0,96,76,57,29.99,29.78,21,4,22,0.27
2013-9-29,70.5,57.3,47.0,57.1,48.1,43.4,99,75,39,30.05,29.93,6,1,8,0.01
2013-9-30,72.3,62.0,44.4,50.5,47.4,42.0,93,61,39,29.97,29.78,15,3,18,0.00
2013-10-1,79.8,65.7,55.6,64.1,58.2,49.8,96,78,55,29.93,29.80,17,4,21,0.00
2013-10-2,76.5,62.4,47.9,56.6,47.4,39.7,97,64,28,30.08,29.93,10,2,13,0.00
2013-10-3,74.8,65.3,58.1,67.8,61.5,43.2,98,88,54,29.93,29.78,10,2,17,0.01
2013-10-4,67.3,64.7,61.9,66.6,63.8,61.3,99,97,94,29.95,29.81,17,3,19,0.30
2013-10-5,71.8,65.2,55.9,71.1,64.4,46.7,100,97,71,29.89,29.70,10,2,14,0.33
2013-10-6,56.1,48.8,40.9,46.7,42.6,39.5,98,81,57,29.74,29.65,13,2,16,0.05
2013-10-7,66.7,52.1,42.2,48.8,45.0,41.1,97,79,46,30.06,29.72,14,3,17,0.00
2013-10-8,75.0,59.8,43.1,53.9,47.0,40.2,94,66,37,30.13,30.05,14,2,21,0.00
2013-10-9,72.6,60.7,50.7,52.4,47.0,40.7,86,63,33,30.18,30.08,9,2,15,0.00
2013-10-10,72.4,59.9,44.9,54.9,49.3,42.9,96,70,44,30.14,30.00,12,1,12,0.00
2013-10-11,74.1,62.3,53.0,60.4,54.6,49.3,91,77,56,30.01,29.86,16,3,19,0.00
2013-11-2,44.2,38.4,31.9,37.7,34.9,30.4,97,88,73,30.15,29.74,6,1,14,0.01
2013-11-3,49.2,38.6,27.2,40.2,33.0,26.4,99,82,53,30.30,30.15,8,2,16,0.01
2013-11-4,52.7,46.9,39.8,44.8,40.1,36.0,86,77,68,30.20,30.02,11,5,25,0.00
2013-11-5,52.9,49.6,46.0,51.0,47.0,43.6,97,91,80,30.24,29.83,13,3,27,0.36
2013-11-6,53.9,41.7,27.9,53.3,38.1,24.1,98,88,61,30.17,29.68,11,4,27,0.31
2013-11-7,41.4,32.2,24.4,33.1,27.8,22.2,93,84,65,30.26,30.17,8,2,16,0.00
2013-11-8,46.3,35.2,21.9,35.6,29.5,20.7,97,81,65,30.31,29.80,19,4,24,0.01
2013-11-9,51.0,45.2,36.8,41.5,36.1,25.2,82,71,53,30.10,29.77,26,9,27,0.00
2013-11-10,47.5,39.9,33.0,32.9,29.9,26.3,77,68,52,30.33,30.10,13,4,17,0.00
2013-11-11,42.7,31.9,19.0,34.1,25.9,14.1,95,79,70,30.58,30.06,12,3,18,0.05
2013-11-12,29.4,21.6,15.8,17.7,14.3,11.3,84,74,53,30.76,30.58,11,3,14,0.00
2013-11-13,40.1,26.6,15.3,21.4,16.8,11.9,87,68,43,30.60,30.10,20,7,29,0.01
2013-11-14,46.3,37.1,28.4,30.5,26.2,20.1,75,65,53,30.10,29.89,20,6,23,0.00
2013-11-15,53.8,42.5,31.1,38.0,33.2,26.8,86,70,53,29.94,29.86,13,4,15,0.00
2013-11-16,56.3,47.8,37.5,54.8,46.2,34.1,98,94,84,29.86,29.46,28,8,28,0.13
2013-11-17,56.1,48.9,37.5,55.5,46.9,32.9,99,93,82,29.68,29.12,24,5,26,1.03
2013-12-6,15.5,9.8,6.0,7.5,3.9,0.8,85,77,63,30.61,30.29,6,3,14,0.00
2013-12-7,15.3,6.9,0.7,3.9,0.4,-2.7,85,75,53,30.76,30.60,6,2,13,0.00
2013-12-8,19.4,14.3,8.3,18.0,9.9,0.3,94,83,67,30.66,29.99,7,2,14,0.00
2013-12-9,17.6,7.0,-9.1,15.9,3.1,-12.8,93,84,68,30.25,29.97,15,4,27,0.00
2013-12-10,16.4,6.4,-10.1,11.6,1.3,-13.6,88,79,69,30.32,29.99,14,6,28,0.00
2013-12-11,12.8,5.9,-5.5,10.7,-0.7,-11.0,91,75,55,30.58,30.30,6,3,18,0.00
2013-12-12,16.3,6.4,-6.8,8.7,1.0,-11.2,86,78,69,30.56,30.23,10,5,19,0.34
2013-12-13,23.6,16.9,8.3,19.2,13.1,5.2,91,85,75,30.24,30.16,13,4,17,0.00
2013-12-14,23.0,19.7,15.3,20.1,17.2,12.7,93,90,86,30.20,29.97,13,3,16,0.00
2013-12-15,18.5,10.3,5.6,14.9,3.0,-3.3,86,72,57,30.18,29.97,16,4,18,0.00
2013-12-16,14.0,6.3,-2.8,12.4,1.6,-8.1,93,81,65,30.21,30.07,8,2,11,0.00
2013-12-17,33.7,23.4,14.0,26.2,18.4,10.6,94,82,60,30.11,29.95,16,6,18,0.11
2013-12-18,33.9,22.1,9.2,24.4,15.0,5.4,90,75,55,30.14,29.80,23,5,25,0.00
2013-12-19,28.4,26.1,22.4,26.9,23.4,20.5,96,90,80,29.99,29.82,11,3,15,0.00
2013-12-20,23.7,21.7,20.3,22.2,20.3,18.9,96,94,93,29.90,29.81,11,3,17,0.00
2013-12-21,25.6,23.8,22.0,24.9,22.9,21.0,97,96,96,29.91,29.72,10,2,13,0.00
2013-12-22,25.3,23.4,21.2,24.6,22.0,19.8,97,95,91,30.14,29.70,10,1,10,0.07
2013-12-23,21.7,5.9,-7.6,20.5,2.9,-10.9,95,87,81,30.49,30.14,14,4,15,0.00
2013-12-24,10.3,-1.0,-14.3,8.0,-4.5,-17.7,90,85,79,30.63,30.36,10,2,14,0.00
2013-12-25,21.4,18.2,10.5,19.7,16.2,8.0,94,91,89,30.36,30.11,14,5,17,0.00
2013-12-26,26.9,19.1,5.7,23.3,16.4,3.2,93,89,85,30.26,30.13,9,2,11,0.00
2013-12-27,34.7,24.1,10.3,30.3,21.5,8.2,95,90,83,30.28,30.05,13,3,15,0.01
2013-12-28,40.9,33.2,22.5,33.6,29.1,20.8,95,85,75,30.07,29.75,14,4,20,0.34
2013-12-29,37.5,18.6,-4.1,31.2,13.9,-10.3,93,82,74,30.27,29.73,17,4,21,0.00
2013-12-30,1.4,-4.4,-15.6,-3.0,-10.2,-19.7,86,76,61,30.39,30.27,6,1,8,0.00
2013-12-31,5.4,0.7,-10.0,2.5,-2.7,-13.3,88,85,80,30.42,30.26,8,2,10,0.00
2014-1-1,8.2,3.9,-1.0,3.2,-1.3,-7.1,84,78,73,30.42,30.34,12,3,12,0.00
2014-1-2,10.5,4.0,-9.0,3.7,-1.3,-12.6,85,78,69,30.50,30.31,9,2,15,0.00